Time;durP1;ratioP1;P1;durP2;ratioP2;P2;SDS_P1;SDS_P2;PMS_P1;PMS_P2;Temp;Humidity;BMP_temperature;BMP_pressure;BME280_temperature;BME280_humidity;BME280_pressure;Samples;Min_cycle;Max_cycle;Signal;HPM_P1;HPM_P2
2020/12/10 00:00:08;;;;;;;17.30;12.88;;;5.80;99.90;;;;;;5112847;27;20188;-71
2020/12/10 00:02:34;;;;;;;17.98;13.20;;;5.80;99.90;;;;;;5133301;27;20196;-71
2020/12/10 00:05:00;;;;;;;16.80;13.70;;;5.80;99.90;;;;;;5125206;27;20509;-72
2020/12/10 00:07:26;;;;;;;17.40;13.00;;;5.80;99.90;;;;;;5130654;27;20296;-72
2020/12/10 00:09:54;;;;;;;18.60;13.20;;;5.80;99.90;;;;;;5120931;27;20223;-72
2020/12/10 00:12:20;;;;;;;18.30;13.55;;;5.80;99.90;;;;;;5126410;27;20549;-71
2020/12/10 00:14:53;;;;;;;21.38;14.60;;;5.80;99.90;;;;;;5130383;27;20196;-72
2020/12/10 00:17:26;;;;;;;17.20;12.82;;;5.80;99.90;;;;;;5130169;27;20192;-72
2020/12/10 00:19:52;;;;;;;16.27;12.15;;;5.80;99.90;;;;;;5118853;27;20188;-72
2020/12/10 00:22:18;;;;;;;20.35;13.57;;;5.80;99.90;;;;;;5126185;27;20200;-71
2020/12/10 00:24:47;;;;;;;18.35;14.07;;;5.80;99.90;;;;;;5122532;27;20681;-72
2020/12/10 00:27:13;;;;;;;18.00;12.55;;;5.70;99.90;;;;;;5125019;28;20202;-72
2020/12/10 00:29:39;;;;;;;18.40;13.57;;;5.70;99.90;;;;;;5115557;27;20212;-71
2020/12/10 00:32:13;;;;;;;17.00;12.02;;;5.70;99.90;;;;;;5127523;27;20199;-71
2020/12/10 00:34:40;;;;;;;17.80;12.95;;;5.70;99.90;;;;;;5127464;27;20188;-72
2020/12/10 00:37:06;;;;;;;17.65;13.50;;;5.70;99.90;;;;;;5135481;27;20241;-71
2020/12/10 00:39:34;;;;;;;16.90;12.20;;;5.70;99.90;;;;;;5119019;27;20273;-71
2020/12/10 00:42:00;;;;;;;18.00;12.85;;;5.80;99.90;;;;;;5116606;28;20196;-71
2020/12/10 00:44:26;;;;;;;18.58;14.32;;;5.70;99.90;;;;;;5119450;27;20184;-71
2020/12/10 00:46:52;;;;;;;17.30;12.38;;;5.70;99.90;;;;;;5125971;27;20203;-71
2020/12/10 00:49:21;;;;;;;14.77;11.90;;;5.70;99.90;;;;;;5131478;27;20221;-71
2020/12/10 00:51:47;;;;;;;17.83;12.38;;;5.70;99.90;;;;;;5116023;27;20204;-71
2020/12/10 00:54:14;;;;;;;17.38;12.98;;;5.70;99.90;;;;;;5116113;27;20235;-71
2020/12/10 00:56:40;;;;;;;17.00;13.75;;;5.70;99.90;;;;;;5121792;27;20525;-70
2020/12/10 00:59:07;;;;;;;19.95;12.70;;;5.70;99.90;;;;;;5124615;27;20192;-71
2020/12/10 01:01:33;;;;;;;19.58;13.18;;;5.70;99.90;;;;;;5115875;27;20189;-71
2020/12/10 01:03:59;;;;;;;18.08;12.85;;;5.70;99.90;;;;;;5116078;28;20555;-71
2020/12/10 01:06:26;;;;;;;17.30;12.32;;;5.70;99.90;;;;;;5127467;27;20197;-71
2020/12/10 01:08:53;;;;;;;17.00;12.38;;;5.60;99.90;;;;;;5125623;27;20223;-71
2020/12/10 01:11:26;;;;;;;20.88;12.95;;;5.70;99.90;;;;;;5115688;27;20200;-71
2020/12/10 01:13:52;;;;;;;16.95;12.70;;;5.60;99.90;;;;;;5121548;27;20197;-71
2020/12/10 01:16:19;;;;;;;19.65;13.60;;;5.60;99.90;;;;;;5125719;27;20543;-70
2020/12/10 01:18:45;;;;;;;19.88;13.60;;;5.70;99.90;;;;;;5136041;27;20197;-71
2020/12/10 01:21:11;;;;;;;19.85;12.13;;;5.60;99.90;;;;;;5134810;27;20204;-71
2020/12/10 01:23:38;;;;;;;18.77;13.88;;;5.60;99.90;;;;;;5115899;27;20193;-72
2020/12/10 01:26:05;;;;;;;20.95;12.80;;;5.60;99.90;;;;;;5115535;27;20195;-71
2020/12/10 01:28:31;;;;;;;16.88;13.18;;;5.60;99.90;;;;;;5126561;27;20192;-72
2020/12/10 01:30:57;;;;;;;16.50;12.10;;;5.60;99.90;;;;;;5134676;27;20308;-72
2020/12/10 01:33:23;;;;;;;17.15;13.45;;;5.70;99.90;;;;;;5133989;27;20193;-72
2020/12/10 01:35:49;;;;;;;17.25;12.38;;;5.70;99.90;;;;;;5130863;27;20207;-71
2020/12/10 01:38:16;;;;;;;20.02;14.60;;;5.70;99.90;;;;;;5128600;27;20219;-71
2020/12/10 01:40:50;;;;;;;19.15;15.02;;;5.70;99.90;;;;;;5129270;27;20177;-72
2020/12/10 01:43:16;;;;;;;19.48;14.73;;;5.60;99.90;;;;;;5132306;27;20211;-72
2020/12/10 01:45:42;;;;;;;17.25;12.07;;;5.60;99.90;;;;;;5130326;27;20226;-71
2020/12/10 01:48:09;;;;;;;18.85;12.27;;;5.60;99.90;;;;;;5123695;27;20199;-71
2020/12/10 01:50:35;;;;;;;19.15;14.55;;;5.60;99.90;;;;;;5127213;27;20703;-72
2020/12/10 01:53:02;;;;;;;17.23;12.65;;;5.60;99.90;;;;;;5135448;27;20208;-70
2020/12/10 01:55:29;;;;;;;19.98;13.50;;;5.60;99.90;;;;;;5135544;27;20207;-72
2020/12/10 01:57:56;;;;;;;21.10;13.38;;;5.60;99.90;;;;;;5135435;27;20200;-71
2020/12/10 02:00:22;;;;;;;21.42;13.60;;;5.60;99.90;;;;;;5121532;27;20192;-71
2020/12/10 02:02:55;;;;;;;16.38;11.68;;;5.60;99.90;;;;;;5115874;27;20189;-71
2020/12/10 02:05:21;;;;;;;20.88;12.77;;;5.50;99.90;;;;;;5124550;27;20628;-71
2020/12/10 02:07:47;;;;;;;20.40;13.60;;;5.60;99.90;;;;;;5126535;27;20237;-70
2020/12/10 02:10:13;;;;;;;18.50;11.85;;;5.50;99.90;;;;;;5134452;27;20231;-71
2020/12/10 02:12:40;;;;;;;18.67;13.32;;;5.50;99.90;;;;;;5135464;27;20215;-71
2020/12/10 02:15:07;;;;;;;17.70;11.85;;;5.50;99.90;;;;;;5119989;27;20698;-71
2020/12/10 02:17:34;;;;;;;21.33;14.05;;;5.50;99.90;;;;;;5118511;27;20197;-70
2020/12/10 02:20:00;;;;;;;19.23;13.38;;;5.50;99.90;;;;;;5115671;27;20204;-71
2020/12/10 02:22:27;;;;;;;18.55;13.18;;;5.50;99.90;;;;;;5131672;27;20203;-71
2020/12/10 02:24:54;;;;;;;23.33;14.07;;;5.50;99.90;;;;;;5131578;27;20204;-71
2020/12/10 02:27:20;;;;;;;22.42;12.50;;;5.50;99.90;;;;;;5114398;27;20188;-71
2020/12/10 02:29:46;;;;;;;19.55;11.85;;;5.50;99.90;;;;;;5127829;27;20204;-72
2020/12/10 02:32:13;;;;;;;15.25;12.27;;;5.60;99.90;;;;;;5134651;27;20501;-72
2020/12/10 02:34:39;;;;;;;19.90;14.45;;;5.60;99.90;;;;;;5129418;27;20196;-71
2020/12/10 02:37:05;;;;;;;19.88;13.15;;;5.50;99.90;;;;;;5125489;27;20204;-70
2020/12/10 02:39:31;;;;;;;21.98;15.05;;;5.50;99.90;;;;;;5113786;28;20224;-71
2020/12/10 02:41:58;;;;;;;23.00;14.65;;;5.50;99.90;;;;;;5113792;28;20192;-70
2020/12/10 02:44:25;;;;;;;17.95;12.60;;;5.50;99.90;;;;;;5114314;27;20532;-69
2020/12/10 02:46:51;;;;;;;17.40;11.52;;;5.60;99.90;;;;;;5120794;27;20197;-71
2020/12/10 02:49:17;;;;;;;21.70;14.00;;;5.50;99.90;;;;;;5123376;27;20219;-71
2020/12/10 02:51:44;;;;;;;17.13;12.52;;;5.50;99.90;;;;;;5124270;27;20197;-70
2020/12/10 02:54:10;;;;;;;17.52;12.18;;;5.50;99.90;;;;;;5113992;28;20193;-71
2020/12/10 02:56:36;;;;;;;19.05;12.77;;;5.50;99.90;;;;;;5126599;27;20188;-71
2020/12/10 02:59:03;;;;;;;19.13;13.35;;;5.50;99.90;;;;;;5134281;27;20196;-71
2020/12/10 03:01:33;;;;;;;22.25;12.18;;;5.50;99.90;;;;;;5132710;27;20207;-71
2020/12/10 03:03:59;;;;;;;22.58;12.68;;;5.50;99.90;;;;;;5121778;27;20189;-72
2020/12/10 03:06:26;;;;;;;18.40;12.50;;;5.40;99.90;;;;;;5133443;27;20193;-71
2020/12/10 03:08:52;;;;;;;16.58;12.32;;;5.50;99.90;;;;;;5119233;27;20192;-71
2020/12/10 03:11:18;;;;;;;16.00;11.55;;;5.50;99.90;;;;;;5115339;27;20197;-71
2020/12/10 03:13:44;;;;;;;16.17;11.50;;;5.50;99.90;;;;;;5117198;27;20192;-71
2020/12/10 03:16:11;;;;;;;17.30;13.15;;;5.40;99.90;;;;;;5117332;27;20189;-71
2020/12/10 03:18:38;;;;;;;17.50;12.25;;;5.40;99.90;;;;;;5127060;27;20188;-71
2020/12/10 03:21:04;;;;;;;16.83;12.02;;;5.40;99.90;;;;;;5130000;27;20196;-72
2020/12/10 03:23:30;;;;;;;19.02;12.02;;;5.40;99.90;;;;;;5133111;27;20192;-72
2020/12/10 03:25:56;;;;;;;16.38;12.70;;;5.50;99.90;;;;;;5131480;27;20226;-72
2020/12/10 03:28:22;;;;;;;14.55;10.85;;;5.50;99.90;;;;;;5133584;27;20192;-71
2020/12/10 03:30:49;;;;;;;17.40;13.00;;;5.50;99.90;;;;;;5123818;27;20218;-72
2020/12/10 03:33:16;;;;;;;15.02;12.20;;;5.50;99.90;;;;;;5131002;27;20918;-72
2020/12/10 03:35:42;;;;;;;15.30;11.60;;;5.40;99.90;;;;;;5125105;27;20198;-70
2020/12/10 03:38:09;;;;;;;16.60;12.63;;;5.40;99.90;;;;;;5130930;27;20217;-69
2020/12/10 03:40:35;;;;;;;18.05;12.20;;;5.40;99.90;;;;;;5113642;28;20193;-71
2020/12/10 03:43:01;;;;;;;17.08;12.48;;;5.40;99.90;;;;;;5114095;27;20208;-71
2020/12/10 03:45:28;;;;;;;14.88;11.50;;;5.40;99.90;;;;;;5129028;27;20203;-71
2020/12/10 03:47:54;;;;;;;16.42;12.15;;;5.40;99.90;;;;;;5116014;27;20207;-70
2020/12/10 03:50:21;;;;;;;22.10;13.32;;;5.40;99.90;;;;;;5125404;27;20212;-71
2020/12/10 03:52:47;;;;;;;14.27;10.95;;;5.40;99.90;;;;;;5114929;27;20197;-71
2020/12/10 03:55:13;;;;;;;18.75;13.52;;;5.40;99.90;;;;;;5115728;27;20204;-71
2020/12/10 03:57:40;;;;;;;18.10;12.80;;;5.50;99.90;;;;;;5112990;28;20228;-71
2020/12/10 04:00:06;;;;;;;15.48;11.07;;;5.40;99.90;;;;;;5112230;28;20197;-71
2020/12/10 04:02:32;;;;;;;16.35;11.38;;;5.40;99.90;;;;;;5125765;27;20192;-71
2020/12/10 04:04:58;;;;;;;16.15;10.95;;;5.40;99.90;;;;;;5119829;27;20200;-71
2020/12/10 04:07:26;;;;;;;17.33;11.63;;;5.30;99.90;;;;;;5133071;27;20203;-71
2020/12/10 04:09:52;;;;;;;14.75;11.43;;;5.30;99.90;;;;;;5119212;27;20240;-71
2020/12/10 04:12:18;;;;;;;15.40;11.10;;;5.30;99.90;;;;;;5112398;28;20203;-71
2020/12/10 04:14:44;;;;;;;17.83;12.55;;;5.30;99.90;;;;;;5116203;27;20192;-71
2020/12/10 04:17:10;;;;;;;15.93;10.20;;;5.30;99.90;;;;;;5112602;28;20199;-71
2020/12/10 04:19:37;;;;;;;15.93;12.40;;;5.30;99.90;;;;;;5112696;28;20196;-71
2020/12/10 04:22:03;;;;;;;16.50;11.88;;;5.20;99.90;;;;;;5112087;28;20200;-71
2020/12/10 04:24:30;;;;;;;17.58;11.77;;;5.20;99.90;;;;;;5112538;28;20185;-70
2020/12/10 04:26:56;;;;;;;15.90;10.52;;;5.30;99.90;;;;;;5112534;28;20205;-71
2020/12/10 04:29:22;;;;;;;15.23;11.35;;;5.20;99.90;;;;;;5114407;28;20223;-70
2020/12/10 04:31:49;;;;;;;16.02;11.55;;;5.20;99.90;;;;;;5129483;27;20197;-72
2020/12/10 04:34:15;;;;;;;15.23;11.57;;;5.20;99.90;;;;;;5119346;28;20214;-72
2020/12/10 04:36:41;;;;;;;15.77;11.02;;;5.20;99.90;;;;;;5113306;28;20206;-71
2020/12/10 04:39:07;;;;;;;16.92;11.25;;;5.20;99.90;;;;;;5112121;28;20221;-71
2020/12/10 04:41:36;;;;;;;14.80;10.90;;;5.20;99.90;;;;;;5112283;28;20193;-71
2020/12/10 04:44:03;;;;;;;19.10;13.10;;;5.20;99.90;;;;;;5113472;28;20196;-72
2020/12/10 04:46:30;;;;;;;16.55;12.38;;;5.10;99.90;;;;;;5116745;28;20192;-72
2020/12/10 04:48:57;;;;;;;19.30;12.25;;;5.20;99.90;;;;;;5115015;28;20192;-70
2020/12/10 04:51:26;;;;;;;15.88;11.70;;;5.10;99.90;;;;;;5112277;28;20217;-71
2020/12/10 04:53:52;;;;;;;18.33;12.63;;;5.20;99.90;;;;;;5118472;28;20196;-71
2020/12/10 04:56:19;;;;;;;15.50;11.30;;;5.10;99.90;;;;;;5131986;27;20185;-71
2020/12/10 04:58:47;;;;;;;16.63;11.90;;;5.10;99.90;;;;;;5130645;27;20200;-72
2020/12/10 05:01:15;;;;;;;15.50;11.68;;;5.10;99.90;;;;;;5129298;27;20184;-70
2020/12/10 05:03:45;;;;;;;20.70;14.80;;;5.10;99.90;;;;;;5115052;28;20216;-72
2020/12/10 05:06:12;;;;;;;19.98;12.43;;;5.10;99.90;;;;;;5130813;27;20204;-72
2020/12/10 05:08:39;;;;;;;21.85;12.85;;;5.00;99.90;;;;;;5127086;27;20199;-72
2020/12/10 05:11:06;;;;;;;19.83;13.85;;;5.00;99.90;;;;;;5129701;28;20216;-72
2020/12/10 05:13:32;;;;;;;17.33;11.60;;;5.00;99.90;;;;;;5117292;27;20246;-72
2020/12/10 05:15:59;;;;;;;18.10;13.57;;;5.10;99.90;;;;;;5116493;27;20688;-72
2020/12/10 05:18:25;;;;;;;16.88;11.10;;;5.00;99.90;;;;;;5121001;27;20206;-72
2020/12/10 05:20:54;;;;;;;17.17;12.43;;;5.00;99.90;;;;;;5134331;27;20184;-72
2020/12/10 05:23:30;;;;;;;22.58;12.25;;;5.00;99.90;;;;;;5133316;27;20286;-72
2020/12/10 05:25:57;;;;;;;18.40;11.70;;;5.10;99.90;;;;;;5135941;27;20612;-72
2020/12/10 05:28:26;;;;;;;17.83;11.82;;;5.10;99.90;;;;;;5134310;27;20188;-71
2020/12/10 05:31:04;;;;;;;16.27;11.77;;;5.00;99.90;;;;;;5115863;27;20265;-71
2020/12/10 05:33:31;;;;;;;17.35;11.90;;;5.00;99.90;;;;;;5115347;27;20238;-71
2020/12/10 05:36:08;;;;;;;18.77;12.23;;;5.00;99.90;;;;;;5130043;27;20192;-71
2020/12/10 05:38:34;;;;;;;19.38;10.85;;;5.00;99.90;;;;;;5116485;27;20270;-71
2020/12/10 05:41:17;;;;;;;15.18;9.65;;;5.10;99.90;;;;;;5115405;27;20177;-70
2020/12/10 05:43:43;;;;;;;16.23;10.48;;;5.00;99.90;;;;;;5127332;27;20197;-70
2020/12/10 05:46:16;;;;;;;18.33;12.63;;;5.00;99.90;;;;;;5119265;27;20193;-70
2020/12/10 05:48:44;;;;;;;20.00;12.35;;;5.00;99.90;;;;;;5123065;27;20521;-70
2020/12/10 05:51:15;;;;;;;15.57;11.32;;;5.00;99.90;;;;;;5125963;27;20218;-70
2020/12/10 05:53:42;;;;;;;17.00;12.27;;;4.90;99.90;;;;;;5133764;27;20192;-70
2020/12/10 05:56:11;;;;;;;20.35;13.20;;;4.90;99.90;;;;;;5135817;27;20376;-70
2020/12/10 05:58:52;;;;;;;17.90;12.90;;;4.90;99.90;;;;;;5135409;27;20214;-70
2020/12/10 06:01:32;;;;;;;17.10;10.88;;;4.90;99.90;;;;;;5125445;27;20190;-70
2020/12/10 06:03:59;;;;;;;17.60;12.82;;;4.90;99.90;;;;;;5134465;27;20196;-70
2020/12/10 06:06:27;;;;;;;17.42;12.90;;;4.90;99.90;;;;;;5127586;27;20528;-70
2020/12/10 06:08:59;;;;;;;18.85;13.55;;;4.90;99.90;;;;;;5115846;27;20200;-71
2020/12/10 06:11:27;;;;;;;16.50;10.65;;;4.90;99.90;;;;;;5115891;27;20725;-70
2020/12/10 06:14:00;;;;;;;21.25;14.10;;;4.90;99.90;;;;;;5114753;28;20204;-70
2020/12/10 06:16:26;;;;;;;16.20;11.77;;;4.90;99.90;;;;;;5133286;27;20256;-70
2020/12/10 06:19:03;;;;;;;17.42;11.88;;;4.90;99.90;;;;;;5134462;27;20196;-70
2020/12/10 06:21:35;;;;;;;19.13;13.25;;;4.80;99.90;;;;;;5125581;27;20245;-70
2020/12/10 06:24:30;;;;;;;20.40;14.05;;;4.80;99.90;;;;;;5114146;28;20288;-70
2020/12/10 06:26:57;;;;;;;18.83;12.77;;;4.90;99.90;;;;;;5120927;27;20211;-72
2020/12/10 06:29:25;;;;;;;17.55;12.82;;;4.90;99.90;;;;;;5123980;27;20193;-70
2020/12/10 06:32:11;;;;;;;18.38;12.38;;;4.80;99.90;;;;;;5114153;27;20298;-72
2020/12/10 06:34:42;;;;;;;17.42;11.57;;;4.80;99.90;;;;;;5113965;27;20196;-70
2020/12/10 06:37:29;;;;;;;17.08;12.30;;;4.80;99.90;;;;;;5115097;27;20874;-70
2020/12/10 06:39:59;;;;;;;21.08;13.50;;;4.80;99.90;;;;;;5112933;28;20225;-70
2020/12/10 06:42:26;;;;;;;17.52;12.15;;;4.80;99.90;;;;;;5113833;28;20292;-70
2020/12/10 06:44:52;;;;;;;20.60;12.40;;;4.70;99.90;;;;;;5112529;27;20193;-70
2020/12/10 06:47:19;;;;;;;18.35;11.98;;;4.80;99.90;;;;;;5113227;28;20193;-70
2020/12/10 06:49:46;;;;;;;22.83;14.20;;;4.80;99.90;;;;;;5113697;28;20213;-70
2020/12/10 06:52:20;;;;;;;17.90;12.55;;;4.80;99.90;;;;;;5113287;28;20212;-72
2020/12/10 06:55:07;;;;;;;18.40;11.80;;;4.80;99.90;;;;;;5113996;27;20197;-72
2020/12/10 06:57:58;;;;;;;20.60;14.15;;;4.90;99.90;;;;;;5118325;27;20524;-71
2020/12/10 07:00:39;;;;;;;22.42;12.85;;;4.80;99.90;;;;;;5131651;27;20241;-71
2020/12/10 07:03:15;;;;;;;14.57;12.02;;;4.80;99.90;;;;;;5113364;28;20283;-71
2020/12/10 07:05:42;;;;;;;20.13;12.80;;;4.80;99.90;;;;;;5122250;27;20197;-71
2020/12/10 07:08:10;;;;;;;19.83;13.60;;;4.70;99.90;;;;;;5113585;28;20520;-71
2020/12/10 07:10:41;;;;;;;18.75;14.00;;;4.70;99.90;;;;;;5123304;27;20208;-72
2020/12/10 07:13:09;;;;;;;14.95;11.10;;;4.80;99.90;;;;;;5133955;27;20196;-72
2020/12/10 07:15:35;;;;;;;17.02;11.23;;;4.70;99.90;;;;;;5129981;27;20201;-72
2020/12/10 07:18:04;;;;;;;14.63;11.82;;;4.70;99.90;;;;;;5119872;27;20248;-72
2020/12/10 07:20:31;;;;;;;16.42;12.07;;;4.70;99.90;;;;;;5127352;27;20189;-71
2020/12/10 07:22:59;;;;;;;20.77;13.18;;;4.70;99.90;;;;;;5113521;27;20189;-71
2020/12/10 07:25:26;;;;;;;17.20;13.00;;;4.70;99.90;;;;;;5125130;27;20628;-71
2020/12/10 07:27:53;;;;;;;17.40;13.40;;;4.70;99.90;;;;;;5113205;28;20208;-72
2020/12/10 07:30:23;;;;;;;18.92;13.52;;;4.70;99.90;;;;;;5112988;28;20216;-72
2020/12/10 07:32:53;;;;;;;15.88;11.25;;;4.70;99.90;;;;;;5116283;27;20257;-71
2020/12/10 07:35:28;;;;;;;16.98;12.30;;;4.70;99.90;;;;;;5114305;27;20222;-73
2020/12/10 07:37:54;;;;;;;20.30;11.95;;;4.60;99.90;;;;;;5120145;27;20187;-73
2020/12/10 07:40:23;;;;;;;14.55;10.65;;;4.70;99.90;;;;;;5122899;27;20181;-72
2020/12/10 07:42:49;;;;;;;17.38;11.45;;;4.70;99.90;;;;;;5113837;27;20291;-72
2020/12/10 07:45:18;;;;;;;15.55;10.98;;;4.70;99.90;;;;;;5112709;28;20201;-72
2020/12/10 07:47:54;;;;;;;19.10;13.30;;;4.70;99.90;;;;;;5115829;27;20193;-72
2020/12/10 07:50:22;;;;;;;16.48;11.88;;;4.60;99.90;;;;;;5116057;27;20196;-72
2020/12/10 07:52:49;;;;;;;15.45;11.15;;;4.70;99.90;;;;;;5112895;28;20196;-71
2020/12/10 07:55:19;;;;;;;18.27;11.82;;;4.70;99.90;;;;;;5112554;28;20208;-72
2020/12/10 07:57:55;;;;;;;18.50;11.60;;;4.60;99.90;;;;;;5127921;27;20748;-72
2020/12/10 08:00:24;;;;;;;15.27;11.57;;;4.60;99.90;;;;;;5127683;27;20519;-73
2020/12/10 08:03:03;;;;;;;17.88;13.75;;;4.70;99.90;;;;;;5114151;27;20192;-73
2020/12/10 08:05:30;;;;;;;21.55;13.63;;;4.70;99.90;;;;;;5120447;27;20192;-72
2020/12/10 08:07:57;;;;;;;16.88;13.52;;;4.70;99.90;;;;;;5113098;27;20303;-72
2020/12/10 08:10:25;;;;;;;20.55;14.48;;;4.70;99.90;;;;;;5123245;27;20207;-71
2020/12/10 08:13:11;;;;;;;19.70;13.32;;;4.70;99.90;;;;;;5116954;27;20196;-72
2020/12/10 08:15:39;;;;;;;16.17;12.00;;;4.60;99.90;;;;;;5126104;27;20195;-71
2020/12/10 08:18:07;;;;;;;18.13;14.50;;;4.70;99.90;;;;;;5132920;27;20211;-71
2020/12/10 08:20:38;;;;;;;23.25;12.90;;;4.70;99.90;;;;;;5112322;27;20193;-71
2020/12/10 08:23:04;;;;;;;19.38;12.55;;;4.70;99.90;;;;;;5112155;28;20667;-72
2020/12/10 08:25:30;;;;;;;19.35;11.68;;;4.60;99.90;;;;;;5112438;28;20207;-72
2020/12/10 08:27:57;;;;;;;19.75;13.00;;;4.60;99.90;;;;;;5111544;28;20532;-72
2020/12/10 08:30:24;;;;;;;18.67;11.48;;;4.70;99.90;;;;;;5111405;28;20227;-72
2020/12/10 08:32:51;;;;;;;22.60;15.05;;;4.70;99.90;;;;;;5111925;28;20219;-71
2020/12/10 08:35:19;;;;;;;17.17;12.50;;;4.60;99.90;;;;;;5111840;28;20197;-72
2020/12/10 08:37:46;;;;;;;18.67;13.15;;;4.70;99.90;;;;;;5112073;28;20273;-71
2020/12/10 08:40:23;;;;;;;23.92;13.27;;;4.60;99.90;;;;;;5111847;28;20224;-71
2020/12/10 08:42:50;;;;;;;18.80;14.68;;;4.60;99.90;;;;;;5132066;27;20202;-71
2020/12/10 08:45:30;;;;;;;19.15;14.30;;;4.60;99.90;;;;;;5128754;27;20201;-71
2020/12/10 08:47:58;;;;;;;21.80;14.50;;;4.70;99.90;;;;;;5122854;28;20200;-71
2020/12/10 08:50:26;;;;;;;23.50;16.08;;;4.70;99.90;;;;;;5126415;27;20246;-72
2020/12/10 08:53:08;;;;;;;20.38;13.48;;;4.70;99.90;;;;;;5117496;27;20189;-72
2020/12/10 08:55:39;;;;;;;22.00;15.48;;;4.70;99.90;;;;;;5119488;27;20246;-72
2020/12/10 08:58:05;;;;;;;21.17;14.88;;;4.70;99.90;;;;;;5134969;27;20271;-71
2020/12/10 09:00:37;;;;;;;22.10;13.77;;;4.70;99.90;;;;;;5115858;27;20200;-72
2020/12/10 09:03:03;;;;;;;25.88;15.32;;;4.70;99.90;;;;;;5127587;27;20542;-72
2020/12/10 09:05:30;;;;;;;23.40;14.45;;;4.70;99.90;;;;;;5125427;27;20204;-71
2020/12/10 09:07:56;;;;;;;24.98;14.85;;;4.70;99.90;;;;;;5125149;27;20206;-70
2020/12/10 09:10:24;;;;;;;18.10;14.13;;;4.70;99.90;;;;;;5133043;27;20547;-71
2020/12/10 09:12:50;;;;;;;17.33;13.02;;;4.70;99.90;;;;;;5135815;27;20188;-71
2020/12/10 09:15:17;;;;;;;21.90;13.55;;;4.70;99.90;;;;;;5135952;27;20244;-70
2020/12/10 09:17:44;;;;;;;21.02;14.45;;;4.70;99.90;;;;;;5123024;27;20197;-72
2020/12/10 09:20:10;;;;;;;21.83;14.90;;;4.80;99.90;;;;;;5116272;27;20189;-71
2020/12/10 09:22:36;;;;;;;20.77;13.57;;;4.80;99.90;;;;;;5115589;28;20192;-71
2020/12/10 09:25:03;;;;;;;20.27;13.18;;;4.80;99.90;;;;;;5115313;27;20197;-71
2020/12/10 09:27:29;;;;;;;19.80;14.40;;;4.80;99.90;;;;;;5119022;27;20188;-72
2020/12/10 09:29:55;;;;;;;25.55;16.17;;;4.90;99.90;;;;;;5127091;27;20208;-72
2020/12/10 09:32:21;;;;;;;22.98;13.95;;;5.00;99.90;;;;;;5115474;27;20193;-72
2020/12/10 09:34:49;;;;;;;19.45;13.90;;;5.00;99.90;;;;;;5131303;27;20269;-71
2020/12/10 09:37:15;;;;;;;19.33;13.18;;;5.10;99.90;;;;;;5134840;27;20204;-72
2020/12/10 09:39:41;;;;;;;21.83;16.08;;;5.10;99.90;;;;;;5126101;27;20220;-73
2020/12/10 09:42:07;;;;;;;21.05;14.75;;;5.10;99.90;;;;;;5115440;28;20229;-71
2020/12/10 09:44:34;;;;;;;21.77;13.25;;;5.10;99.90;;;;;;5115003;27;20201;-73
2020/12/10 09:47:00;;;;;;;20.17;13.88;;;5.10;99.90;;;;;;5114043;28;20185;-72
2020/12/10 09:49:26;;;;;;;17.85;13.65;;;5.10;99.90;;;;;;5114125;28;20201;-72
2020/12/10 09:51:56;;;;;;;20.80;14.60;;;5.20;99.90;;;;;;5114536;28;20213;-72
2020/12/10 09:54:34;;;;;;;19.83;14.40;;;5.20;99.90;;;;;;5126317;27;20283;-79
2020/12/10 09:57:09;;;;;;;18.30;12.50;;;5.10;99.90;;;;;;5115291;27;20238;-73
2020/12/10 09:59:37;;;;;;;22.63;14.30;;;5.10;99.90;;;;;;5119483;27;20180;-73
2020/12/10 10:02:04;;;;;;;23.33;14.30;;;5.10;99.90;;;;;;5129748;27;20207;-75
2020/12/10 10:04:31;;;;;;;20.58;14.82;;;5.10;99.90;;;;;;5134489;27;20204;-73
2020/12/10 10:06:58;;;;;;;18.50;13.40;;;5.00;99.90;;;;;;5124810;27;20196;-73
2020/12/10 10:09:26;;;;;;;22.40;14.13;;;5.00;99.90;;;;;;5134077;27;20189;-72
2020/12/10 10:11:53;;;;;;;21.27;15.10;;;5.10;99.90;;;;;;5133914;27;20226;-73
2020/12/10 10:14:19;;;;;;;18.33;13.98;;;5.10;99.90;;;;;;5115735;27;20207;-73
2020/12/10 10:16:45;;;;;;;21.60;14.88;;;5.20;99.90;;;;;;5113877;27;20205;-73
2020/12/10 10:19:12;;;;;;;25.70;17.95;;;5.30;99.90;;;;;;5115493;27;20192;-73
2020/12/10 10:21:38;;;;;;;18.20;13.35;;;5.20;99.90;;;;;;5118376;27;20188;-73
2020/12/10 10:24:06;;;;;;;21.05;15.00;;;5.20;99.90;;;;;;5134629;27;20200;-74
2020/12/10 10:26:32;;;;;;;23.15;15.02;;;5.20;99.90;;;;;;5130975;27;20193;-73
2020/12/10 10:29:00;;;;;;;23.10;15.82;;;5.30;99.90;;;;;;5115586;27;20212;-74
2020/12/10 10:31:26;;;;;;;22.48;15.55;;;5.20;99.90;;;;;;5115026;27;20216;-73
2020/12/10 10:33:52;;;;;;;24.33;16.30;;;5.30;99.90;;;;;;5124295;27;20189;-74
2020/12/10 10:36:21;;;;;;;22.63;14.38;;;5.30;99.90;;;;;;5118621;27;20189;-73
2020/12/10 10:38:48;;;;;;;20.67;14.80;;;5.30;99.90;;;;;;5123148;27;20229;-73
2020/12/10 10:41:15;;;;;;;22.63;15.38;;;5.30;99.90;;;;;;5128965;27;20188;-73
2020/12/10 10:43:41;;;;;;;21.90;13.63;;;5.30;99.90;;;;;;5123565;27;20710;-73
2020/12/10 10:46:07;;;;;;;19.40;13.82;;;5.40;99.90;;;;;;5114152;28;20196;-73
2020/12/10 10:48:34;;;;;;;24.73;15.45;;;5.40;99.90;;;;;;5132286;27;20233;-74
2020/12/10 10:51:00;;;;;;;19.58;13.80;;;5.30;99.90;;;;;;5134220;27;20307;-73
2020/12/10 10:53:26;;;;;;;22.08;15.02;;;5.30;99.90;;;;;;5118363;27;20201;-73
2020/12/10 10:55:53;;;;;;;21.67;13.38;;;5.40;99.90;;;;;;5128095;27;20199;-73
2020/12/10 10:58:20;;;;;;;21.77;14.48;;;5.40;99.90;;;;;;5134420;27;20548;-73
2020/12/10 11:00:47;;;;;;;22.42;14.73;;;5.40;99.90;;;;;;5122618;27;20199;-73
2020/12/10 11:03:13;;;;;;;22.90;14.23;;;5.40;99.90;;;;;;5130572;27;20204;-74
2020/12/10 11:05:39;;;;;;;24.65;15.93;;;5.40;99.90;;;;;;5133627;27;20200;-74
2020/12/10 11:08:05;;;;;;;24.02;15.80;;;5.30;99.90;;;;;;5120308;27;20640;-73
2020/12/10 11:10:32;;;;;;;22.90;14.38;;;5.30;99.90;;;;;;5113076;27;20564;-73
2020/12/10 11:12:58;;;;;;;24.02;15.30;;;5.30;99.90;;;;;;5113637;27;20189;-73
2020/12/10 11:15:25;;;;;;;21.13;15.73;;;5.30;99.90;;;;;;5116427;27;20200;-73
2020/12/10 11:17:51;;;;;;;20.27;15.63;;;5.20;99.90;;;;;;5132780;27;20196;-73
2020/12/10 11:20:17;;;;;;;21.83;15.15;;;5.20;99.90;;;;;;5133448;27;20188;-73
2020/12/10 11:22:44;;;;;;;22.67;14.25;;;5.20;99.90;;;;;;5127769;27;20192;-73
2020/12/10 11:25:10;;;;;;;21.15;14.15;;;5.20;99.90;;;;;;5115634;27;20638;-83
2020/12/10 11:27:36;;;;;;;27.05;14.07;;;5.20;99.90;;;;;;5121649;27;20199;-74
2020/12/10 11:30:04;;;;;;;23.88;16.05;;;5.20;99.90;;;;;;5127240;27;20200;-72
2020/12/10 11:32:31;;;;;;;22.90;14.55;;;5.20;99.90;;;;;;5131455;27;20192;-71
2020/12/10 11:34:57;;;;;;;17.77;13.20;;;5.20;99.90;;;;;;5118680;27;20211;-72
2020/12/10 11:37:24;;;;;;;24.23;14.52;;;5.20;99.90;;;;;;5131360;27;20199;-72
2020/12/10 11:39:51;;;;;;;18.42;14.10;;;5.20;99.90;;;;;;5127079;27;20231;-72
2020/12/10 11:42:17;;;;;;;18.83;13.45;;;5.20;99.90;;;;;;5113045;28;20192;-72
2020/12/10 11:44:43;;;;;;;19.92;14.13;;;5.20;99.90;;;;;;5112882;28;20662;-71
2020/12/10 11:47:10;;;;;;;20.30;13.45;;;5.30;99.90;;;;;;5112984;27;20220;-70
2020/12/10 11:49:37;;;;;;;24.48;16.13;;;5.30;99.90;;;;;;5129964;27;20199;-72
2020/12/10 11:52:04;;;;;;;19.90;13.40;;;5.30;99.90;;;;;;5119499;27;20208;-73
2020/12/10 11:54:30;;;;;;;22.42;13.95;;;5.30;99.90;;;;;;5112631;28;20200;-73
2020/12/10 11:56:57;;;;;;;23.40;14.35;;;5.30;99.90;;;;;;5113236;28;20264;-72
2020/12/10 11:59:23;;;;;;;23.65;13.77;;;5.30;99.90;;;;;;5131235;27;20490;-73
2020/12/10 12:01:50;;;;;;;29.77;15.05;;;5.40;99.90;;;;;;5130219;27;20200;-73
2020/12/10 12:04:17;;;;;;;23.23;14.18;;;5.30;99.90;;;;;;5131379;27;20196;-73
2020/12/10 12:06:45;;;;;;;21.02;12.30;;;5.40;99.90;;;;;;5131225;27;20200;-73
2020/12/10 12:09:11;;;;;;;21.73;13.38;;;5.40;99.90;;;;;;5133036;27;20196;-73
2020/12/10 12:11:37;;;;;;;22.15;14.25;;;5.40;99.90;;;;;;5131362;27;20204;-73
2020/12/10 12:14:04;;;;;;;18.98;13.30;;;5.30;99.90;;;;;;5129793;27;20208;-73
2020/12/10 12:16:30;;;;;;;20.90;14.02;;;5.40;99.90;;;;;;5118518;27;20192;-72
2020/12/10 12:18:56;;;;;;;18.70;13.77;;;5.40;99.90;;;;;;5132152;27;20196;-74
2020/12/10 12:21:24;;;;;;;21.90;13.13;;;5.40;99.90;;;;;;5130297;27;20194;-72
2020/12/10 12:23:52;;;;;;;25.42;15.63;;;5.40;99.90;;;;;;5125342;27;20216;-72
2020/12/10 12:26:18;;;;;;;25.00;14.20;;;5.40;99.90;;;;;;5120539;27;20223;-73
2020/12/10 12:28:48;;;;;;;18.83;11.82;;;5.40;99.90;;;;;;5112896;28;20219;-73
2020/12/10 12:31:15;;;;;;;18.17;12.18;;;5.40;99.90;;;;;;5117820;28;20216;-71
2020/12/10 12:33:42;;;;;;;21.85;13.32;;;5.40;99.90;;;;;;5114622;28;20654;-72
2020/12/10 12:36:08;;;;;;;17.23;12.25;;;5.40;99.90;;;;;;5136540;27;20201;-73
2020/12/10 12:38:35;;;;;;;20.23;11.55;;;5.40;99.90;;;;;;5125483;27;20259;-73